<?xml version="1.0" encoding="UTF-8" standalone="no" ?>
<gpx xmlns="http://www.topografix.com/GPX/1/1" xmlns:xsi="http://www.w3.org/2001/XMLSchema-instance" xsi:schemaLocation="http://www.topografix.com/GPX/1/1 http://www.topografix.com/GPX/1/1/gpx.xsd" version="1.1" creator="VisuGPX - https://www.visugpx.com">
  <metadata>
    <name>LePouliguen_LeCroisic_10-20km</name>
    <desc><![CDATA[gnerando idor:14387918_14388012_14411987_14458844_14458865]]></desc>
  </metadata>
  <trk>
    <name><![CDATA[LePouliguen_LeCroisicGranitsMarais_19km-14458844]]></name>
    <extensions>
      <line xmlns="http://www.topografix.com/GPX/gpx_style/0/2">
        <color>008000</color>
        <width>4</width>
      </line>
    </extensions>
    <trkseg>
      <trkpt lat="47.28256" lon="-2.43381">
        <ele>2</ele>
        <time>2023-11-04T19:24:19Z</time>
      </trkpt>
      <trkpt lat="47.28194" lon="-2.43294">
        <ele>3</ele>
        <time>2023-11-04T19:26:13Z</time>
      </trkpt>
      <trkpt lat="47.27985" lon="-2.43651">
        <ele>2.7</ele>
        <time>2023-11-04T19:33:20Z</time>
      </trkpt>
      <trkpt lat="47.27799" lon="-2.43825">
        <ele>1</ele>
        <time>2023-11-04T19:38:14Z</time>
      </trkpt>
      <trkpt lat="47.27706" lon="-2.44075">
        <ele>2</ele>
        <time>2023-11-04T19:42:32Z</time>
      </trkpt>
      <trkpt lat="47.27541" lon="-2.44054">
        <ele>3</ele>
        <time>2023-11-04T19:46:13Z</time>
      </trkpt>
      <trkpt lat="47.27418" lon="-2.44157">
        <ele>4</ele>
        <time>2023-11-04T19:49:22Z</time>
      </trkpt>
      <trkpt lat="47.2745" lon="-2.4454">
        <ele>2</ele>
        <time>2023-11-04T19:55:11Z</time>
      </trkpt>
      <trkpt lat="47.27538" lon="-2.44807">
        <ele>3</ele>
        <time>2023-11-04T19:59:40Z</time>
      </trkpt>
      <trkpt lat="47.27503" lon="-2.44848">
        <ele>3</ele>
        <time>2023-11-04T20:00:40Z</time>
      </trkpt>
      <trkpt lat="47.27459" lon="-2.44849">
        <ele>3</ele>
        <time>2023-11-04T20:01:39Z</time>
      </trkpt>
      <trkpt lat="47.27415" lon="-2.4491">
        <ele>4</ele>
        <time>2023-11-04T20:02:59Z</time>
      </trkpt>
      <trkpt lat="47.27337" lon="-2.44965">
        <ele>4</ele>
        <time>2023-11-04T20:04:55Z</time>
      </trkpt>
      <trkpt lat="47.27062" lon="-2.45001">
        <ele>8</ele>
        <time>2023-11-04T20:11:03Z</time>
      </trkpt>
      <trkpt lat="47.27065" lon="-2.45341">
        <ele>8</ele>
        <time>2023-11-04T20:16:11Z</time>
      </trkpt>
      <trkpt lat="47.26973" lon="-2.45343">
        <ele>10</ele>
        <time>2023-11-04T20:18:14Z</time>
      </trkpt>
      <trkpt lat="47.26961" lon="-2.45433">
        <ele>9</ele>
        <time>2023-11-04T20:19:37Z</time>
      </trkpt>
      <trkpt lat="47.2683" lon="-2.4538">
        <ele>8</ele>
        <time>2023-11-04T20:22:38Z</time>
      </trkpt>
      <trkpt lat="47.26788" lon="-2.45408">
        <ele>7</ele>
        <time>2023-11-04T20:23:40Z</time>
      </trkpt>
      <trkpt lat="47.26767" lon="-2.45394">
        <ele>7</ele>
        <time>2023-11-04T20:24:10Z</time>
      </trkpt>
      <trkpt lat="47.26754" lon="-2.45422">
        <ele>7</ele>
        <time>2023-11-04T20:24:41Z</time>
      </trkpt>
      <trkpt lat="47.26815" lon="-2.45525">
        <ele>7</ele>
        <time>2023-11-04T20:26:45Z</time>
      </trkpt>
      <trkpt lat="47.26788" lon="-2.45559">
        <ele>7</ele>
        <time>2023-11-04T20:27:32Z</time>
      </trkpt>
      <trkpt lat="47.26793" lon="-2.45603">
        <ele>6</ele>
        <time>2023-11-04T20:28:13Z</time>
      </trkpt>
      <trkpt lat="47.26845" lon="-2.45635">
        <ele>6</ele>
        <time>2023-11-04T20:29:28Z</time>
      </trkpt>
      <trkpt lat="47.26869" lon="-2.4569">
        <ele>6</ele>
        <time>2023-11-04T20:30:27Z</time>
      </trkpt>
      <trkpt lat="47.26852" lon="-2.45717">
        <ele>4</ele>
        <time>2023-11-04T20:31:00Z</time>
      </trkpt>
      <trkpt lat="47.26896" lon="-2.45866">
        <ele>5</ele>
        <time>2023-11-04T20:33:27Z</time>
      </trkpt>
      <trkpt lat="47.26986" lon="-2.45984">
        <ele>6</ele>
        <time>2023-11-04T20:36:08Z</time>
      </trkpt>
      <trkpt lat="47.27024" lon="-2.46142">
        <ele>6</ele>
        <time>2023-11-04T20:38:40Z</time>
      </trkpt>
      <trkpt lat="47.27014" lon="-2.46197">
        <ele>5</ele>
        <time>2023-11-04T20:39:32Z</time>
      </trkpt>
      <trkpt lat="47.26986" lon="-2.46212">
        <ele>3</ele>
        <time>2023-11-04T20:40:11Z</time>
      </trkpt>
      <trkpt lat="47.26958" lon="-2.46298">
        <ele>3</ele>
        <time>2023-11-04T20:41:38Z</time>
      </trkpt>
      <trkpt lat="47.26999" lon="-2.46482">
        <ele>2</ele>
        <time>2023-11-04T20:44:33Z</time>
      </trkpt>
      <trkpt lat="47.27078" lon="-2.46506">
        <ele>5</ele>
        <time>2023-11-04T20:46:21Z</time>
      </trkpt>
      <trkpt lat="47.27109" lon="-2.46568">
        <ele>6</ele>
        <time>2023-11-04T20:47:30Z</time>
      </trkpt>
      <trkpt lat="47.27065" lon="-2.46603">
        <ele>5</ele>
        <time>2023-11-04T20:48:37Z</time>
      </trkpt>
      <trkpt lat="47.27059" lon="-2.46661">
        <ele>7</ele>
        <time>2023-11-04T20:49:30Z</time>
      </trkpt>
      <trkpt lat="47.26993" lon="-2.46705">
        <ele>5</ele>
        <time>2023-11-04T20:51:07Z</time>
      </trkpt>
      <trkpt lat="47.2697" lon="-2.46766">
        <ele>5</ele>
        <time>2023-11-04T20:52:10Z</time>
      </trkpt>
      <trkpt lat="47.26966" lon="-2.46855">
        <ele>5</ele>
        <time>2023-11-04T20:53:31Z</time>
      </trkpt>
      <trkpt lat="47.27009" lon="-2.46993">
        <ele>9</ele>
        <time>2023-11-04T20:55:48Z</time>
      </trkpt>
      <trkpt lat="47.2701" lon="-2.47046">
        <ele>9</ele>
        <time>2023-11-04T20:56:36Z</time>
      </trkpt>
      <trkpt lat="47.26979" lon="-2.47127">
        <ele>5</ele>
        <time>2023-11-04T20:58:01Z</time>
      </trkpt>
      <trkpt lat="47.27003" lon="-2.47168">
        <ele>6</ele>
        <time>2023-11-04T20:58:50Z</time>
      </trkpt>
      <trkpt lat="47.27044" lon="-2.47165">
        <ele>10</ele>
        <time>2023-11-04T20:59:44Z</time>
      </trkpt>
      <trkpt lat="47.27047" lon="-2.47283">
        <ele>8</ele>
        <time>2023-11-04T21:01:31Z</time>
      </trkpt>
      <trkpt lat="47.27108" lon="-2.47515">
        <ele>6</ele>
        <time>2023-11-04T21:05:17Z</time>
      </trkpt>
      <trkpt lat="47.27136" lon="-2.4757">
        <ele>6</ele>
        <time>2023-11-04T21:06:19Z</time>
      </trkpt>
      <trkpt lat="47.27175" lon="-2.47582">
        <ele>9</ele>
        <time>2023-11-04T21:07:12Z</time>
      </trkpt>
      <trkpt lat="47.27157" lon="-2.47625">
        <ele>6</ele>
        <time>2023-11-04T21:07:58Z</time>
      </trkpt>
      <trkpt lat="47.27182" lon="-2.47684">
        <ele>6</ele>
        <time>2023-11-04T21:09:01Z</time>
      </trkpt>
      <trkpt lat="47.27193" lon="-2.47775">
        <ele>5</ele>
        <time>2023-11-04T21:10:25Z</time>
      </trkpt>
      <trkpt lat="47.27219" lon="-2.47809">
        <ele>5</ele>
        <time>2023-11-04T21:11:11Z</time>
      </trkpt>
      <trkpt lat="47.27243" lon="-2.47801">
        <ele>6</ele>
        <time>2023-11-04T21:11:44Z</time>
      </trkpt>
      <trkpt lat="47.2729" lon="-2.47862">
        <ele>6</ele>
        <time>2023-11-04T21:13:07Z</time>
      </trkpt>
      <trkpt lat="47.27259" lon="-2.47999">
        <ele>4</ele>
        <time>2023-11-04T21:15:18Z</time>
      </trkpt>
      <trkpt lat="47.27276" lon="-2.48097">
        <ele>5</ele>
        <time>2023-11-04T21:16:50Z</time>
      </trkpt>
      <trkpt lat="47.27369" lon="-2.48101">
        <ele>8</ele>
        <time>2023-11-04T21:18:54Z</time>
      </trkpt>
      <trkpt lat="47.27405" lon="-2.48132">
        <ele>9</ele>
        <time>2023-11-04T21:19:49Z</time>
      </trkpt>
      <trkpt lat="47.2765" lon="-2.48091">
        <ele>18</ele>
        <time>2023-11-04T21:25:19Z</time>
      </trkpt>
      <trkpt lat="47.28064" lon="-2.4793">
        <ele>6</ele>
        <time>2023-11-04T21:34:50Z</time>
      </trkpt>
      <trkpt lat="47.28138" lon="-2.48364">
        <ele>7</ele>
        <time>2023-11-04T21:41:35Z</time>
      </trkpt>
      <trkpt lat="47.28233" lon="-2.48348">
        <ele>5</ele>
        <time>2023-11-04T21:43:43Z</time>
      </trkpt>
      <trkpt lat="47.28262" lon="-2.48375">
        <ele>4</ele>
        <time>2023-11-04T21:44:28Z</time>
      </trkpt>
      <trkpt lat="47.28285" lon="-2.48361">
        <ele>3</ele>
        <time>2023-11-04T21:45:02Z</time>
      </trkpt>
      <trkpt lat="47.28278" lon="-2.48276">
        <ele>3</ele>
        <time>2023-11-04T21:46:19Z</time>
      </trkpt>
      <trkpt lat="47.28383" lon="-2.48216">
        <ele>1</ele>
        <time>2023-11-04T21:48:49Z</time>
      </trkpt>
      <trkpt lat="47.28427" lon="-2.48226">
        <ele>2.9</ele>
        <time>2023-11-04T21:49:49Z</time>
      </trkpt>
      <trkpt lat="47.28451" lon="-2.48185">
        <ele>2.8</ele>
        <time>2023-11-04T21:50:38Z</time>
      </trkpt>
      <trkpt lat="47.28511" lon="-2.48181">
        <ele>1.7</ele>
        <time>2023-11-04T21:51:58Z</time>
      </trkpt>
      <trkpt lat="47.28542" lon="-2.48229">
        <ele>1.5</ele>
        <time>2023-11-04T21:52:58Z</time>
      </trkpt>
      <trkpt lat="47.28564" lon="-2.48305">
        <ele>2</ele>
        <time>2023-11-04T21:54:13Z</time>
      </trkpt>
      <trkpt lat="47.28489" lon="-2.48311">
        <ele>2</ele>
        <time>2023-11-04T21:55:53Z</time>
      </trkpt>
      <trkpt lat="47.28478" lon="-2.48375">
        <ele>2</ele>
        <time>2023-11-04T21:56:53Z</time>
      </trkpt>
      <trkpt lat="47.28445" lon="-2.48398">
        <ele>1</ele>
        <time>2023-11-04T21:57:41Z</time>
      </trkpt>
      <trkpt lat="47.28434" lon="-2.48532">
        <ele>2</ele>
        <time>2023-11-04T21:59:44Z</time>
      </trkpt>
      <trkpt lat="47.28468" lon="-2.48564">
        <ele>1</ele>
        <time>2023-11-04T22:00:37Z</time>
      </trkpt>
      <trkpt lat="47.28477" lon="-2.48607">
        <ele>1.9</ele>
        <time>2023-11-04T22:01:18Z</time>
      </trkpt>
      <trkpt lat="47.28525" lon="-2.48574">
        <ele>1.4</ele>
        <time>2023-11-04T22:02:29Z</time>
      </trkpt>
      <trkpt lat="47.28566" lon="-2.48515">
        <ele>1.8</ele>
        <time>2023-11-04T22:03:45Z</time>
      </trkpt>
      <trkpt lat="47.28597" lon="-2.48495">
        <ele>2.1</ele>
        <time>2023-11-04T22:04:31Z</time>
      </trkpt>
      <trkpt lat="47.28626" lon="-2.48502">
        <ele>2.5</ele>
        <time>2023-11-04T22:05:10Z</time>
      </trkpt>
      <trkpt lat="47.28666" lon="-2.48659">
        <ele>2.2</ele>
        <time>2023-11-04T22:07:42Z</time>
      </trkpt>
      <trkpt lat="47.28548" lon="-2.48794">
        <ele>2.4</ele>
        <time>2023-11-04T22:11:01Z</time>
      </trkpt>
      <trkpt lat="47.28572" lon="-2.48817">
        <ele>2.4</ele>
        <time>2023-11-04T22:11:39Z</time>
      </trkpt>
      <trkpt lat="47.28582" lon="-2.48854">
        <ele>2</ele>
        <time>2023-11-04T22:12:15Z</time>
      </trkpt>
      <trkpt lat="47.28569" lon="-2.48911">
        <ele>2.4</ele>
        <time>2023-11-04T22:13:10Z</time>
      </trkpt>
      <trkpt lat="47.28526" lon="-2.48927">
        <ele>2</ele>
        <time>2023-11-04T22:14:09Z</time>
      </trkpt>
      <trkpt lat="47.28474" lon="-2.48917">
        <ele>2</ele>
        <time>2023-11-04T22:15:19Z</time>
      </trkpt>
      <trkpt lat="47.28458" lon="-2.48961">
        <ele>2.6</ele>
        <time>2023-11-04T22:16:04Z</time>
      </trkpt>
      <trkpt lat="47.2849" lon="-2.48985">
        <ele>2.4</ele>
        <time>2023-11-04T22:16:52Z</time>
      </trkpt>
      <trkpt lat="47.28577" lon="-2.48973">
        <ele>2</ele>
        <time>2023-11-04T22:18:48Z</time>
      </trkpt>
      <trkpt lat="47.28598" lon="-2.49021">
        <ele>2</ele>
        <time>2023-11-04T22:19:40Z</time>
      </trkpt>
      <trkpt lat="47.28595" lon="-2.49081">
        <ele>1</ele>
        <time>2023-11-04T22:20:35Z</time>
      </trkpt>
      <trkpt lat="47.28611" lon="-2.49161">
        <ele>2</ele>
        <time>2023-11-04T22:21:50Z</time>
      </trkpt>
      <trkpt lat="47.28635" lon="-2.4932">
        <ele>1.9</ele>
        <time>2023-11-04T22:24:18Z</time>
      </trkpt>
      <trkpt lat="47.28633" lon="-2.49628">
        <ele>1.4</ele>
        <time>2023-11-04T22:28:56Z</time>
      </trkpt>
      <trkpt lat="47.28526" lon="-2.4968">
        <ele>1.1</ele>
        <time>2023-11-04T22:31:27Z</time>
      </trkpt>
      <trkpt lat="47.28519" lon="-2.49724">
        <ele>2</ele>
        <time>2023-11-04T22:32:08Z</time>
      </trkpt>
      <trkpt lat="47.28414" lon="-2.49733">
        <ele>2.6</ele>
        <time>2023-11-04T22:34:28Z</time>
      </trkpt>
      <trkpt lat="47.28346" lon="-2.49777">
        <ele>1</ele>
        <time>2023-11-04T22:36:07Z</time>
      </trkpt>
      <trkpt lat="47.28343" lon="-2.49826">
        <ele>2</ele>
        <time>2023-11-04T22:36:52Z</time>
      </trkpt>
      <trkpt lat="47.28387" lon="-2.49844">
        <ele>1</ele>
        <time>2023-11-04T22:37:53Z</time>
      </trkpt>
      <trkpt lat="47.28416" lon="-2.49917">
        <ele>1</ele>
        <time>2023-11-04T22:39:09Z</time>
      </trkpt>
      <trkpt lat="47.28475" lon="-2.49894">
        <ele>2</ele>
        <time>2023-11-04T22:40:31Z</time>
      </trkpt>
      <trkpt lat="47.28523" lon="-2.49891">
        <ele>2.1</ele>
        <time>2023-11-04T22:41:35Z</time>
      </trkpt>
      <trkpt lat="47.28558" lon="-2.50155">
        <ele>1.9</ele>
        <time>2023-11-04T22:45:38Z</time>
      </trkpt>
      <trkpt lat="47.28535" lon="-2.50172">
        <ele>1.8</ele>
        <time>2023-11-04T22:46:13Z</time>
      </trkpt>
      <trkpt lat="47.28504" lon="-2.50158">
        <ele>2.6</ele>
        <time>2023-11-04T22:46:56Z</time>
      </trkpt>
      <trkpt lat="47.28493" lon="-2.50231">
        <ele>2</ele>
        <time>2023-11-04T22:48:03Z</time>
      </trkpt>
      <trkpt lat="47.28396" lon="-2.50279">
        <ele>2</ele>
        <time>2023-11-04T22:50:20Z</time>
      </trkpt>
      <trkpt lat="47.28385" lon="-2.50335">
        <ele>3</ele>
        <time>2023-11-04T22:51:13Z</time>
      </trkpt>
      <trkpt lat="47.28341" lon="-2.50319">
        <ele>4</ele>
        <time>2023-11-04T22:52:13Z</time>
      </trkpt>
      <trkpt lat="47.28326" lon="-2.50361">
        <ele>4</ele>
        <time>2023-11-04T22:52:56Z</time>
      </trkpt>
      <trkpt lat="47.28289" lon="-2.50373">
        <ele>4</ele>
        <time>2023-11-04T22:53:47Z</time>
      </trkpt>
      <trkpt lat="47.2821" lon="-2.5072">
        <ele>5</ele>
        <time>2023-11-04T22:59:18Z</time>
      </trkpt>
      <trkpt lat="47.28186" lon="-2.50721">
        <ele>4</ele>
        <time>2023-11-04T22:59:50Z</time>
      </trkpt>
      <trkpt lat="47.28239" lon="-2.50974">
        <ele>4</ele>
        <time>2023-11-04T23:03:50Z</time>
      </trkpt>
      <trkpt lat="47.28232" lon="-2.51044">
        <ele>4</ele>
        <time>2023-11-04T23:04:54Z</time>
      </trkpt>
      <trkpt lat="47.28264" lon="-2.5109">
        <ele>5</ele>
        <time>2023-11-04T23:05:54Z</time>
      </trkpt>
      <trkpt lat="47.28296" lon="-2.51186">
        <ele>3</ele>
        <time>2023-11-04T23:07:30Z</time>
      </trkpt>
      <trkpt lat="47.28408" lon="-2.51271">
        <ele>6</ele>
        <time>2023-11-04T23:10:19Z</time>
      </trkpt>
      <trkpt lat="47.2844" lon="-2.51397">
        <ele>6</ele>
        <time>2023-11-04T23:12:20Z</time>
      </trkpt>
      <trkpt lat="47.2852" lon="-2.51515">
        <ele>6</ele>
        <time>2023-11-04T23:14:51Z</time>
      </trkpt>
      <trkpt lat="47.2855" lon="-2.51777">
        <ele>6</ele>
        <time>2023-11-04T23:18:52Z</time>
      </trkpt>
      <trkpt lat="47.28615" lon="-2.5186">
        <ele>8</ele>
        <time>2023-11-04T23:20:47Z</time>
      </trkpt>
      <trkpt lat="47.28622" lon="-2.51911">
        <ele>6</ele>
        <time>2023-11-04T23:21:34Z</time>
      </trkpt>
      <trkpt lat="47.2861" lon="-2.51961">
        <ele>5</ele>
        <time>2023-11-04T23:22:22Z</time>
      </trkpt>
      <trkpt lat="47.28641" lon="-2.52043">
        <ele>8</ele>
        <time>2023-11-04T23:23:47Z</time>
      </trkpt>
      <trkpt lat="47.28632" lon="-2.52064">
        <ele>6</ele>
        <time>2023-11-04T23:24:09Z</time>
      </trkpt>
      <trkpt lat="47.28654" lon="-2.52088">
        <ele>9</ele>
        <time>2023-11-04T23:24:46Z</time>
      </trkpt>
      <trkpt lat="47.28641" lon="-2.52126">
        <ele>7</ele>
        <time>2023-11-04T23:25:24Z</time>
      </trkpt>
      <trkpt lat="47.28654" lon="-2.52152">
        <ele>7</ele>
        <time>2023-11-04T23:25:53Z</time>
      </trkpt>
      <trkpt lat="47.28627" lon="-2.52188">
        <ele>4</ele>
        <time>2023-11-04T23:26:42Z</time>
      </trkpt>
      <trkpt lat="47.28678" lon="-2.52235">
        <ele>6</ele>
        <time>2023-11-04T23:28:02Z</time>
      </trkpt>
      <trkpt lat="47.28701" lon="-2.52217">
        <ele>8</ele>
        <time>2023-11-04T23:28:37Z</time>
      </trkpt>
      <trkpt lat="47.28742" lon="-2.52416">
        <ele>10</ele>
        <time>2023-11-04T23:31:45Z</time>
      </trkpt>
      <trkpt lat="47.28694" lon="-2.52577">
        <ele>5</ele>
        <time>2023-11-04T23:34:25Z</time>
      </trkpt>
      <trkpt lat="47.28718" lon="-2.52674">
        <ele>7</ele>
        <time>2023-11-04T23:35:58Z</time>
      </trkpt>
      <trkpt lat="47.28717" lon="-2.52802">
        <ele>8</ele>
        <time>2023-11-04T23:37:54Z</time>
      </trkpt>
      <trkpt lat="47.28745" lon="-2.52983">
        <ele>11</ele>
        <time>2023-11-04T23:40:42Z</time>
      </trkpt>
      <trkpt lat="47.28751" lon="-2.53151">
        <ele>7</ele>
        <time>2023-11-04T23:43:14Z</time>
      </trkpt>
      <trkpt lat="47.2883" lon="-2.53245">
        <ele>12</ele>
        <time>2023-11-04T23:45:30Z</time>
      </trkpt>
      <trkpt lat="47.2886" lon="-2.53409">
        <ele>10</ele>
        <time>2023-11-04T23:48:03Z</time>
      </trkpt>
      <trkpt lat="47.28859" lon="-2.53522">
        <ele>8</ele>
        <time>2023-11-04T23:49:46Z</time>
      </trkpt>
      <trkpt lat="47.28904" lon="-2.53665">
        <ele>9</ele>
        <time>2023-11-04T23:52:08Z</time>
      </trkpt>
      <trkpt lat="47.28939" lon="-2.53927">
        <ele>5</ele>
        <time>2023-11-04T23:56:10Z</time>
      </trkpt>
      <trkpt lat="47.2906" lon="-2.54342">
        <ele>3</ele>
        <time>2023-11-05T00:02:59Z</time>
      </trkpt>
      <trkpt lat="47.29052" lon="-2.54426">
        <ele>3</ele>
        <time>2023-11-05T00:04:16Z</time>
      </trkpt>
      <trkpt lat="47.29019" lon="-2.54497">
        <ele>3</ele>
        <time>2023-11-05T00:05:34Z</time>
      </trkpt>
      <trkpt lat="47.29041" lon="-2.54557">
        <ele>2</ele>
        <time>2023-11-05T00:06:35Z</time>
      </trkpt>
      <trkpt lat="47.29084" lon="-2.54519">
        <ele>4</ele>
        <time>2023-11-05T00:07:42Z</time>
      </trkpt>
      <trkpt lat="47.29194" lon="-2.54614">
        <ele>5</ele>
        <time>2023-11-05T00:10:32Z</time>
      </trkpt>
      <trkpt lat="47.2925" lon="-2.54711">
        <ele>3</ele>
        <time>2023-11-05T00:12:28Z</time>
      </trkpt>
      <trkpt lat="47.29443" lon="-2.54684">
        <ele>4</ele>
        <time>2023-11-05T00:16:46Z</time>
      </trkpt>
      <trkpt lat="47.29523" lon="-2.5462">
        <ele>4</ele>
        <time>2023-11-05T00:18:48Z</time>
      </trkpt>
      <trkpt lat="47.29645" lon="-2.54578">
        <ele>3</ele>
        <time>2023-11-05T00:21:35Z</time>
      </trkpt>
      <trkpt lat="47.29769" lon="-2.54482">
        <ele>4</ele>
        <time>2023-11-05T00:24:42Z</time>
      </trkpt>
      <trkpt lat="47.29825" lon="-2.54386">
        <ele>3</ele>
        <time>2023-11-05T00:26:37Z</time>
      </trkpt>
      <trkpt lat="47.29865" lon="-2.54336">
        <ele>3</ele>
        <time>2023-11-05T00:27:47Z</time>
      </trkpt>
      <trkpt lat="47.29882" lon="-2.54165">
        <ele>2</ele>
        <time>2023-11-05T00:30:23Z</time>
      </trkpt>
      <trkpt lat="47.29912" lon="-2.54062">
        <ele>2</ele>
        <time>2023-11-05T00:32:04Z</time>
      </trkpt>
      <trkpt lat="47.29959" lon="-2.53974">
        <ele>2</ele>
        <time>2023-11-05T00:33:46Z</time>
      </trkpt>
      <trkpt lat="47.29952" lon="-2.53859">
        <ele>2</ele>
        <time>2023-11-05T00:35:30Z</time>
      </trkpt>
      <trkpt lat="47.2993" lon="-2.53823">
        <ele>3</ele>
        <time>2023-11-05T00:36:14Z</time>
      </trkpt>
      <trkpt lat="47.29907" lon="-2.53692">
        <ele>2</ele>
        <time>2023-11-05T00:38:17Z</time>
      </trkpt>
      <trkpt lat="47.29945" lon="-2.53552">
        <ele>3</ele>
        <time>2023-11-05T00:40:33Z</time>
      </trkpt>
      <trkpt lat="47.30081" lon="-2.53423">
        <ele>2</ele>
        <time>2023-11-05T00:44:09Z</time>
      </trkpt>
      <trkpt lat="47.30049" lon="-2.5326">
        <ele>3</ele>
        <time>2023-11-05T00:46:42Z</time>
      </trkpt>
      <trkpt lat="47.30035" lon="-2.53027">
        <ele>2</ele>
        <time>2023-11-05T00:50:14Z</time>
      </trkpt>
      <trkpt lat="47.30084" lon="-2.52814">
        <ele>4</ele>
        <time>2023-11-05T00:53:38Z</time>
      </trkpt>
      <trkpt lat="47.30092" lon="-2.52667">
        <ele>4</ele>
        <time>2023-11-05T00:55:51Z</time>
      </trkpt>
      <trkpt lat="47.30113" lon="-2.526">
        <ele>3</ele>
        <time>2023-11-05T00:56:58Z</time>
      </trkpt>
      <trkpt lat="47.30118" lon="-2.52482">
        <ele>4</ele>
        <time>2023-11-05T00:58:45Z</time>
      </trkpt>
      <trkpt lat="47.30046" lon="-2.52097">
        <ele>5</ele>
        <time>2023-11-05T01:04:46Z</time>
      </trkpt>
      <trkpt lat="47.30092" lon="-2.5207">
        <ele>3</ele>
        <time>2023-11-05T01:05:52Z</time>
      </trkpt>
      <trkpt lat="47.30007" lon="-2.51892">
        <ele>1</ele>
        <time>2023-11-05T01:09:09Z</time>
      </trkpt>
      <trkpt lat="47.29982" lon="-2.51824">
        <ele>2</ele>
        <time>2023-11-05T01:10:19Z</time>
      </trkpt>
      <trkpt lat="47.30015" lon="-2.51792">
        <time>2023-11-05T01:11:12Z</time>
      </trkpt>
      <trkpt lat="47.29891" lon="-2.51564">
        <ele>2</ele>
        <time>2023-11-05T01:15:37Z</time>
      </trkpt>
      <trkpt lat="47.2986" lon="-2.51464">
        <ele>2</ele>
        <time>2023-11-05T01:17:16Z</time>
      </trkpt>
      <trkpt lat="47.29809" lon="-2.5149">
        <ele>4</ele>
        <time>2023-11-05T01:18:28Z</time>
      </trkpt>
      <trkpt lat="47.29568" lon="-2.51326">
        <ele>6</ele>
        <time>2023-11-05T01:24:22Z</time>
      </trkpt>
      <trkpt lat="47.29373" lon="-2.50938">
        <ele>3</ele>
        <time>2023-11-05T01:31:39Z</time>
      </trkpt>
      <trkpt lat="47.29025" lon="-2.50743">
        <ele>5</ele>
        <time>2023-11-05T01:39:56Z</time>
      </trkpt>
      <trkpt lat="47.2902" lon="-2.50746">
        <ele>5</ele>
        <time>2023-11-05T01:40:03Z</time>
      </trkpt>
      <trkpt lat="47.28901" lon="-2.50646">
        <ele>3</ele>
        <time>2023-11-05T01:43:06Z</time>
      </trkpt>
      <trkpt lat="47.28807" lon="-2.50598">
        <ele>4</ele>
        <time>2023-11-05T01:45:19Z</time>
      </trkpt>
    </trkseg>
  </trk>
</gpx>